sensor_id;sensor_type;location;lat;lon;timestamp;P1;durP1;ratioP1;P2;durP2;ratioP2
41263;SDS011;26998;48.714;9.414;2023-06-19T00:00:57;9.57;;;8.20;;
41263;SDS011;26998;48.714;9.414;2023-06-19T00:03:23;9.55;;;8.60;;
41263;SDS011;26998;48.714;9.414;2023-06-19T00:05:50;9.80;;;8.10;;
41263;SDS011;26998;48.714;9.414;2023-06-19T00:08:19;9.57;;;7.60;;
41263;SDS011;26998;48.714;9.414;2023-06-19T00:10:45;8.80;;;7.95;;
41263;SDS011;26998;48.714;9.414;2023-06-19T00:13:12;9.05;;;7.90;;
41263;SDS011;26998;48.714;9.414;2023-06-19T00:15:39;9.98;;;8.13;;
41263;SDS011;26998;48.714;9.414;2023-06-19T00:18:05;9.32;;;8.43;;
41263;SDS011;26998;48.714;9.414;2023-06-19T00:20:32;8.65;;;7.43;;
41263;SDS011;26998;48.714;9.414;2023-06-19T00:22:59;9.38;;;7.72;;
41263;SDS011;26998;48.714;9.414;2023-06-19T00:25:25;11.43;;;7.93;;
41263;SDS011;26998;48.714;9.414;2023-06-19T00:27:52;10.07;;;7.82;;
41263;SDS011;26998;48.714;9.414;2023-06-19T00:30:18;9.02;;;8.15;;
41263;SDS011;26998;48.714;9.414;2023-06-19T00:32:45;9.00;;;8.10;;
41263;SDS011;26998;48.714;9.414;2023-06-19T00:35:14;9.00;;;8.13;;
41263;SDS011;26998;48.714;9.414;2023-06-19T00:37:42;8.93;;;7.60;;
41263;SDS011;26998;48.714;9.414;2023-06-19T00:40:10;8.63;;;7.72;;
41263;SDS011;26998;48.714;9.414;2023-06-19T00:42:42;8.15;;;7.32;;
41263;SDS011;26998;48.714;9.414;2023-06-19T00:45:09;9.02;;;7.97;;
41263;SDS011;26998;48.714;9.414;2023-06-19T00:47:36;9.00;;;7.82;;
41263;SDS011;26998;48.714;9.414;2023-06-19T00:50:04;11.00;;;7.88;;
41263;SDS011;26998;48.714;9.414;2023-06-19T00:52:31;9.27;;;8.38;;
41263;SDS011;26998;48.714;9.414;2023-06-19T00:54:58;9.15;;;8.10;;
41263;SDS011;26998;48.714;9.414;2023-06-19T00:57:25;10.82;;;8.23;;
41263;SDS011;26998;48.714;9.414;2023-06-19T00:59:52;9.15;;;8.32;;
41263;SDS011;26998;48.714;9.414;2023-06-19T01:02:19;8.90;;;7.93;;
41263;SDS011;26998;48.714;9.414;2023-06-19T01:04:45;8.85;;;7.95;;
41263;SDS011;26998;48.714;9.414;2023-06-19T01:07:12;9.43;;;8.45;;
41263;SDS011;26998;48.714;9.414;2023-06-19T01:09:46;10.35;;;8.27;;
41263;SDS011;26998;48.714;9.414;2023-06-19T01:12:20;8.77;;;7.97;;
41263;SDS011;26998;48.714;9.414;2023-06-19T01:14:53;9.32;;;8.00;;
41263;SDS011;26998;48.714;9.414;2023-06-19T01:17:24;10.15;;;8.40;;
41263;SDS011;26998;48.714;9.414;2023-06-19T01:19:52;9.38;;;7.95;;
41263;SDS011;26998;48.714;9.414;2023-06-19T01:22:29;9.07;;;8.18;;
41263;SDS011;26998;48.714;9.414;2023-06-19T01:24:57;9.27;;;8.48;;
41263;SDS011;26998;48.714;9.414;2023-06-19T01:27:24;10.20;;;8.30;;
41263;SDS011;26998;48.714;9.414;2023-06-19T01:29:52;7.22;;;6.63;;
41263;SDS011;26998;48.714;9.414;2023-06-19T01:32:20;8.68;;;7.75;;
41263;SDS011;26998;48.714;9.414;2023-06-19T01:34:52;8.25;;;7.47;;
41263;SDS011;26998;48.714;9.414;2023-06-19T01:37:21;12.38;;;7.43;;
41263;SDS011;26998;48.714;9.414;2023-06-19T01:39:49;8.77;;;7.70;;
41263;SDS011;26998;48.714;9.414;2023-06-19T01:42:18;10.35;;;8.18;;
41263;SDS011;26998;48.714;9.414;2023-06-19T01:44:45;9.65;;;8.07;;
41263;SDS011;26998;48.714;9.414;2023-06-19T01:47:12;8.93;;;7.97;;
41263;SDS011;26998;48.714;9.414;2023-06-19T01:49:39;8.57;;;7.13;;
41263;SDS011;26998;48.714;9.414;2023-06-19T01:52:05;8.57;;;7.60;;
41263;SDS011;26998;48.714;9.414;2023-06-19T01:54:32;8.90;;;7.82;;
41263;SDS011;26998;48.714;9.414;2023-06-19T01:56:59;11.55;;;7.95;;
41263;SDS011;26998;48.714;9.414;2023-06-19T01:59:26;8.52;;;7.75;;
41263;SDS011;26998;48.714;9.414;2023-06-19T02:01:52;9.65;;;8.55;;
41263;SDS011;26998;48.714;9.414;2023-06-19T02:04:18;9.55;;;7.93;;
41263;SDS011;26998;48.714;9.414;2023-06-19T02:06:45;9.50;;;8.50;;
41263;SDS011;26998;48.714;9.414;2023-06-19T02:09:12;13.07;;;8.32;;
41263;SDS011;26998;48.714;9.414;2023-06-19T02:11:38;9.48;;;8.57;;
41263;SDS011;26998;48.714;9.414;2023-06-19T02:14:05;11.25;;;9.00;;
41263;SDS011;26998;48.714;9.414;2023-06-19T02:16:31;9.73;;;8.73;;
41263;SDS011;26998;48.714;9.414;2023-06-19T02:18:59;9.32;;;8.43;;
41263;SDS011;26998;48.714;9.414;2023-06-19T02:21:26;10.15;;;9.15;;
41263;SDS011;26998;48.714;9.414;2023-06-19T02:23:52;11.00;;;8.52;;
41263;SDS011;26998;48.714;9.414;2023-06-19T02:26:19;9.80;;;8.77;;
41263;SDS011;26998;48.714;9.414;2023-06-19T02:28:46;9.95;;;8.30;;
41263;SDS011;26998;48.714;9.414;2023-06-19T02:31:12;9.30;;;8.40;;
41263;SDS011;26998;48.714;9.414;2023-06-19T02:33:39;10.60;;;8.52;;
41263;SDS011;26998;48.714;9.414;2023-06-19T02:36:06;9.80;;;8.80;;
41263;SDS011;26998;48.714;9.414;2023-06-19T02:38:32;13.77;;;9.27;;
41263;SDS011;26998;48.714;9.414;2023-06-19T02:40:59;11.15;;;9.07;;
41263;SDS011;26998;48.714;9.414;2023-06-19T02:43:26;9.25;;;8.35;;
41263;SDS011;26998;48.714;9.414;2023-06-19T02:45:52;10.25;;;9.10;;
41263;SDS011;26998;48.714;9.414;2023-06-19T02:48:19;9.00;;;7.90;;
41263;SDS011;26998;48.714;9.414;2023-06-19T02:50:45;13.13;;;8.80;;
41263;SDS011;26998;48.714;9.414;2023-06-19T02:53:12;9.80;;;8.40;;
41263;SDS011;26998;48.714;9.414;2023-06-19T02:55:39;12.52;;;7.80;;
41263;SDS011;26998;48.714;9.414;2023-06-19T02:58:05;9.82;;;8.13;;
41263;SDS011;26998;48.714;9.414;2023-06-19T03:00:32;12.57;;;8.63;;
41263;SDS011;26998;48.714;9.414;2023-06-19T03:02:59;8.77;;;7.88;;
41263;SDS011;26998;48.714;9.414;2023-06-19T03:05:26;9.20;;;7.53;;
41263;SDS011;26998;48.714;9.414;2023-06-19T03:07:54;9.20;;;8.18;;
41263;SDS011;26998;48.714;9.414;2023-06-19T03:10:21;12.07;;;7.63;;
41263;SDS011;26998;48.714;9.414;2023-06-19T03:12:48;8.27;;;7.53;;
41263;SDS011;26998;48.714;9.414;2023-06-19T03:15:16;7.78;;;6.97;;
41263;SDS011;26998;48.714;9.414;2023-06-19T03:17:43;8.68;;;7.20;;
41263;SDS011;26998;48.714;9.414;2023-06-19T03:20:10;9.95;;;7.85;;
41263;SDS011;26998;48.714;9.414;2023-06-19T03:22:40;9.98;;;6.97;;
41263;SDS011;26998;48.714;9.414;2023-06-19T03:25:07;7.53;;;6.82;;
41263;SDS011;26998;48.714;9.414;2023-06-19T03:27:34;7.30;;;6.60;;
41263;SDS011;26998;48.714;9.414;2023-06-19T03:30:01;7.32;;;6.53;;
41263;SDS011;26998;48.714;9.414;2023-06-19T03:32:27;8.18;;;7.03;;
41263;SDS011;26998;48.714;9.414;2023-06-19T03:34:57;7.72;;;6.85;;
41263;SDS011;26998;48.714;9.414;2023-06-19T03:37:24;6.55;;;6.00;;
41263;SDS011;26998;48.714;9.414;2023-06-19T03:39:50;6.50;;;5.90;;
41263;SDS011;26998;48.714;9.414;2023-06-19T03:42:17;9.63;;;6.40;;
41263;SDS011;26998;48.714;9.414;2023-06-19T03:44:44;8.45;;;6.63;;
41263;SDS011;26998;48.714;9.414;2023-06-19T03:47:10;6.60;;;6.00;;
41263;SDS011;26998;48.714;9.414;2023-06-19T03:49:37;7.30;;;6.30;;
41263;SDS011;26998;48.714;9.414;2023-06-19T03:52:04;6.63;;;5.90;;
41263;SDS011;26998;48.714;9.414;2023-06-19T03:54:31;7.32;;;5.90;;
41263;SDS011;26998;48.714;9.414;2023-06-19T03:56:57;6.97;;;6.32;;
41263;SDS011;26998;48.714;9.414;2023-06-19T03:59:25;8.32;;;6.32;;
41263;SDS011;26998;48.714;9.414;2023-06-19T04:01:52;6.65;;;6.05;;
41263;SDS011;26998;48.714;9.414;2023-06-19T04:04:19;7.95;;;6.60;;
41263;SDS011;26998;48.714;9.414;2023-06-19T04:06:45;8.40;;;6.30;;
41263;SDS011;26998;48.714;9.414;2023-06-19T04:09:12;6.78;;;6.07;;
41263;SDS011;26998;48.714;9.414;2023-06-19T04:11:38;6.63;;;6.10;;
41263;SDS011;26998;48.714;9.414;2023-06-19T04:14:05;9.02;;;6.20;;
41263;SDS011;26998;48.714;9.414;2023-06-19T04:16:32;6.55;;;5.85;;
41263;SDS011;26998;48.714;9.414;2023-06-19T04:18:58;7.00;;;6.38;;
41263;SDS011;26998;48.714;9.414;2023-06-19T04:21:25;6.95;;;6.35;;
41263;SDS011;26998;48.714;9.414;2023-06-19T04:23:52;9.68;;;6.30;;
41263;SDS011;26998;48.714;9.414;2023-06-19T04:26:19;5.72;;;5.22;;
41263;SDS011;26998;48.714;9.414;2023-06-19T04:28:46;10.57;;;6.88;;
41263;SDS011;26998;48.714;9.414;2023-06-19T04:31:12;8.70;;;6.70;;
41263;SDS011;26998;48.714;9.414;2023-06-19T04:33:39;11.43;;;6.20;;
41263;SDS011;26998;48.714;9.414;2023-06-19T04:36:07;7.10;;;6.40;;
41263;SDS011;26998;48.714;9.414;2023-06-19T04:38:33;7.57;;;6.50;;
41263;SDS011;26998;48.714;9.414;2023-06-19T04:41:13;8.85;;;6.53;;
41263;SDS011;26998;48.714;9.414;2023-06-19T04:43:41;8.88;;;7.07;;
41263;SDS011;26998;48.714;9.414;2023-06-19T04:46:07;9.18;;;6.47;;
41263;SDS011;26998;48.714;9.414;2023-06-19T04:48:34;8.18;;;6.57;;
41263;SDS011;26998;48.714;9.414;2023-06-19T04:51:01;6.75;;;6.00;;
41263;SDS011;26998;48.714;9.414;2023-06-19T04:53:29;8.70;;;6.05;;
41263;SDS011;26998;48.714;9.414;2023-06-19T04:55:55;6.75;;;6.05;;
41263;SDS011;26998;48.714;9.414;2023-06-19T04:58:27;6.90;;;5.95;;
41263;SDS011;26998;48.714;9.414;2023-06-19T05:00:54;8.95;;;6.43;;
41263;SDS011;26998;48.714;9.414;2023-06-19T05:03:21;6.15;;;5.38;;
41263;SDS011;26998;48.714;9.414;2023-06-19T05:05:47;5.75;;;5.20;;
41263;SDS011;26998;48.714;9.414;2023-06-19T05:08:14;7.30;;;6.03;;
41263;SDS011;26998;48.714;9.414;2023-06-19T05:10:42;8.30;;;5.70;;
41263;SDS011;26998;48.714;9.414;2023-06-19T05:13:11;8.13;;;5.45;;
41263;SDS011;26998;48.714;9.414;2023-06-19T05:15:38;6.30;;;5.22;;
41263;SDS011;26998;48.714;9.414;2023-06-19T05:18:05;9.75;;;5.75;;
41263;SDS011;26998;48.714;9.414;2023-06-19T05:20:31;7.75;;;5.00;;
41263;SDS011;26998;48.714;9.414;2023-06-19T05:22:58;6.53;;;5.30;;
41263;SDS011;26998;48.714;9.414;2023-06-19T05:25:24;6.65;;;5.95;;
41263;SDS011;26998;48.714;9.414;2023-06-19T05:27:51;5.65;;;5.03;;
41263;SDS011;26998;48.714;9.414;2023-06-19T05:30:17;7.85;;;5.63;;
41263;SDS011;26998;48.714;9.414;2023-06-19T05:32:44;6.32;;;5.15;;
41263;SDS011;26998;48.714;9.414;2023-06-19T05:35:10;8.32;;;4.82;;
41263;SDS011;26998;48.714;9.414;2023-06-19T05:37:41;9.77;;;4.88;;
41263;SDS011;26998;48.714;9.414;2023-06-19T05:40:08;6.97;;;4.95;;
41263;SDS011;26998;48.714;9.414;2023-06-19T05:42:35;9.00;;;4.70;;
41263;SDS011;26998;48.714;9.414;2023-06-19T05:45:03;10.00;;;4.78;;
41263;SDS011;26998;48.714;9.414;2023-06-19T05:47:30;7.35;;;5.18;;
41263;SDS011;26998;48.714;9.414;2023-06-19T05:49:57;8.65;;;4.60;;
41263;SDS011;26998;48.714;9.414;2023-06-19T05:52:24;6.10;;;4.28;;
41263;SDS011;26998;48.714;9.414;2023-06-19T05:54:51;6.32;;;4.55;;
41263;SDS011;26998;48.714;9.414;2023-06-19T05:57:17;5.40;;;4.90;;
41263;SDS011;26998;48.714;9.414;2023-06-19T05:59:44;5.00;;;4.50;;
41263;SDS011;26998;48.714;9.414;2023-06-19T06:02:10;9.77;;;4.60;;
41263;SDS011;26998;48.714;9.414;2023-06-19T06:04:37;4.68;;;4.28;;
41263;SDS011;26998;48.714;9.414;2023-06-19T06:07:04;5.70;;;4.70;;
41263;SDS011;26998;48.714;9.414;2023-06-19T06:09:31;5.95;;;4.40;;
41263;SDS011;26998;48.714;9.414;2023-06-19T06:11:57;6.97;;;4.43;;
41263;SDS011;26998;48.714;9.414;2023-06-19T06:14:24;4.63;;;4.20;;
41263;SDS011;26998;48.714;9.414;2023-06-19T06:16:50;6.55;;;4.25;;
41263;SDS011;26998;48.714;9.414;2023-06-19T06:21:09;4.47;;;3.53;;
41263;SDS011;26998;48.714;9.414;2023-06-19T06:23:36;9.00;;;4.32;;
41263;SDS011;26998;48.714;9.414;2023-06-19T06:26:03;6.25;;;3.80;;
41263;SDS011;26998;48.714;9.414;2023-06-19T06:28:29;6.45;;;3.88;;
41263;SDS011;26998;48.714;9.414;2023-06-19T06:30:56;6.93;;;4.15;;
41263;SDS011;26998;48.714;9.414;2023-06-19T06:33:23;4.57;;;4.05;;
41263;SDS011;26998;48.714;9.414;2023-06-19T06:35:50;5.63;;;4.00;;
41263;SDS011;26998;48.714;9.414;2023-06-19T06:38:16;5.22;;;3.50;;
41263;SDS011;26998;48.714;9.414;2023-06-19T06:40:43;3.92;;;3.53;;
41263;SDS011;26998;48.714;9.414;2023-06-19T06:43:09;4.35;;;3.70;;
41263;SDS011;26998;48.714;9.414;2023-06-19T06:45:36;4.72;;;3.03;;
41263;SDS011;26998;48.714;9.414;2023-06-19T06:48:03;5.38;;;4.13;;
41263;SDS011;26998;48.714;9.414;2023-06-19T06:50:32;5.30;;;3.45;;
41263;SDS011;26998;48.714;9.414;2023-06-19T06:52:59;4.28;;;3.80;;
41263;SDS011;26998;48.714;9.414;2023-06-19T06:55:26;6.30;;;3.63;;
41263;SDS011;26998;48.714;9.414;2023-06-19T06:57:53;4.85;;;3.70;;
41263;SDS011;26998;48.714;9.414;2023-06-19T07:00:20;4.82;;;3.78;;
41263;SDS011;26998;48.714;9.414;2023-06-19T07:02:47;4.60;;;3.50;;
41263;SDS011;26998;48.714;9.414;2023-06-19T07:05:13;8.65;;;3.92;;
41263;SDS011;26998;48.714;9.414;2023-06-19T07:07:40;9.35;;;3.65;;
41263;SDS011;26998;48.714;9.414;2023-06-19T07:10:07;7.45;;;4.35;;
41263;SDS011;26998;48.714;9.414;2023-06-19T07:12:35;9.85;;;4.03;;
41263;SDS011;26998;48.714;9.414;2023-06-19T07:15:10;6.75;;;3.75;;
41263;SDS011;26998;48.714;9.414;2023-06-19T07:17:39;4.07;;;3.72;;
41263;SDS011;26998;48.714;9.414;2023-06-19T07:20:06;4.20;;;3.60;;
41263;SDS011;26998;48.714;9.414;2023-06-19T07:22:33;5.30;;;3.78;;
41263;SDS011;26998;48.714;9.414;2023-06-19T07:25:00;4.43;;;4.03;;
41263;SDS011;26998;48.714;9.414;2023-06-19T07:27:27;4.78;;;3.40;;
41263;SDS011;26998;48.714;9.414;2023-06-19T07:29:53;4.07;;;3.35;;
41263;SDS011;26998;48.714;9.414;2023-06-19T07:32:20;5.20;;;3.65;;
41263;SDS011;26998;48.714;9.414;2023-06-19T07:34:48;4.03;;;3.42;;
41263;SDS011;26998;48.714;9.414;2023-06-19T07:37:15;5.63;;;3.55;;
41263;SDS011;26998;48.714;9.414;2023-06-19T07:39:43;3.88;;;3.08;;
41263;SDS011;26998;48.714;9.414;2023-06-19T07:42:16;7.32;;;3.60;;
41263;SDS011;26998;48.714;9.414;2023-06-19T07:44:44;3.60;;;3.22;;
41263;SDS011;26998;48.714;9.414;2023-06-19T07:47:11;8.18;;;3.72;;
41263;SDS011;26998;48.714;9.414;2023-06-19T07:49:38;3.80;;;3.40;;
41263;SDS011;26998;48.714;9.414;2023-06-19T07:52:06;8.65;;;4.07;;
41263;SDS011;26998;48.714;9.414;2023-06-19T07:54:33;4.18;;;3.60;;
41263;SDS011;26998;48.714;9.414;2023-06-19T07:57:01;5.03;;;4.45;;
41263;SDS011;26998;48.714;9.414;2023-06-19T07:59:27;4.82;;;3.10;;
41263;SDS011;26998;48.714;9.414;2023-06-19T08:01:54;4.15;;;2.75;;
41263;SDS011;26998;48.714;9.414;2023-06-19T08:04:21;3.35;;;3.05;;
41263;SDS011;26998;48.714;9.414;2023-06-19T08:06:47;5.45;;;3.90;;
41263;SDS011;26998;48.714;9.414;2023-06-19T08:09:14;3.38;;;2.67;;
41263;SDS011;26998;48.714;9.414;2023-06-19T08:11:41;5.85;;;3.05;;
41263;SDS011;26998;48.714;9.414;2023-06-19T08:14:07;5.05;;;2.85;;
41263;SDS011;26998;48.714;9.414;2023-06-19T08:16:34;4.47;;;2.90;;
41263;SDS011;26998;48.714;9.414;2023-06-19T08:19:01;13.85;;;3.95;;
41263;SDS011;26998;48.714;9.414;2023-06-19T08:21:28;7.00;;;3.58;;
41263;SDS011;26998;48.714;9.414;2023-06-19T08:23:55;4.57;;;3.22;;
41263;SDS011;26998;48.714;9.414;2023-06-19T08:26:22;4.60;;;3.55;;
41263;SDS011;26998;48.714;9.414;2023-06-19T08:28:48;7.80;;;4.05;;
41263;SDS011;26998;48.714;9.414;2023-06-19T08:31:15;8.57;;;3.30;;
41263;SDS011;26998;48.714;9.414;2023-06-19T08:33:41;4.30;;;2.92;;
41263;SDS011;26998;48.714;9.414;2023-06-19T08:36:08;3.00;;;2.60;;
41263;SDS011;26998;48.714;9.414;2023-06-19T08:38:34;3.40;;;2.45;;
41263;SDS011;26998;48.714;9.414;2023-06-19T08:41:01;4.70;;;2.83;;
41263;SDS011;26998;48.714;9.414;2023-06-19T08:43:28;13.80;;;3.63;;
41263;SDS011;26998;48.714;9.414;2023-06-19T08:45:57;2.97;;;2.63;;
41263;SDS011;26998;48.714;9.414;2023-06-19T08:48:37;2.42;;;2.30;;
41263;SDS011;26998;48.714;9.414;2023-06-19T08:51:05;5.38;;;2.35;;
41263;SDS011;26998;48.714;9.414;2023-06-19T08:53:33;7.82;;;3.03;;
41263;SDS011;26998;48.714;9.414;2023-06-19T08:56:03;2.72;;;2.53;;
41263;SDS011;26998;48.714;9.414;2023-06-19T08:58:30;2.85;;;2.30;;
41263;SDS011;26998;48.714;9.414;2023-06-19T09:00:57;5.88;;;2.83;;
41263;SDS011;26998;48.714;9.414;2023-06-19T09:03:25;5.78;;;2.63;;
41263;SDS011;26998;48.714;9.414;2023-06-19T09:05:51;3.30;;;2.60;;
41263;SDS011;26998;48.714;9.414;2023-06-19T09:08:19;3.45;;;3.00;;
41263;SDS011;26998;48.714;9.414;2023-06-19T09:10:54;6.38;;;3.03;;
41263;SDS011;26998;48.714;9.414;2023-06-19T09:13:27;4.38;;;2.70;;
41263;SDS011;26998;48.714;9.414;2023-06-19T09:15:59;5.07;;;3.33;;
41263;SDS011;26998;48.714;9.414;2023-06-19T09:18:28;6.38;;;2.90;;
41263;SDS011;26998;48.714;9.414;2023-06-19T09:20:59;3.70;;;2.67;;
41263;SDS011;26998;48.714;9.414;2023-06-19T09:23:26;3.17;;;2.85;;
41263;SDS011;26998;48.714;9.414;2023-06-19T09:25:53;10.15;;;3.28;;
41263;SDS011;26998;48.714;9.414;2023-06-19T09:28:22;3.60;;;3.30;;
41263;SDS011;26998;48.714;9.414;2023-06-19T09:30:59;3.20;;;2.65;;
41263;SDS011;26998;48.714;9.414;2023-06-19T09:33:30;6.28;;;3.67;;
41263;SDS011;26998;48.714;9.414;2023-06-19T09:36:00;2.28;;;2.15;;
41263;SDS011;26998;48.714;9.414;2023-06-19T09:38:29;3.65;;;2.17;;
41263;SDS011;26998;48.714;9.414;2023-06-19T09:41:02;3.75;;;2.40;;
41263;SDS011;26998;48.714;9.414;2023-06-19T09:43:34;14.65;;;8.07;;
41263;SDS011;26998;48.714;9.414;2023-06-19T09:46:04;6.32;;;2.40;;
41263;SDS011;26998;48.714;9.414;2023-06-19T09:48:32;8.23;;;5.78;;
41263;SDS011;26998;48.714;9.414;2023-06-19T09:51:12;3.05;;;2.40;;
41263;SDS011;26998;48.714;9.414;2023-06-19T09:53:45;4.00;;;2.67;;
41263;SDS011;26998;48.714;9.414;2023-06-19T09:56:16;5.22;;;4.40;;
41263;SDS011;26998;48.714;9.414;2023-06-19T09:58:44;3.08;;;2.78;;
41263;SDS011;26998;48.714;9.414;2023-06-19T10:01:11;4.00;;;3.25;;
41263;SDS011;26998;48.714;9.414;2023-06-19T10:03:39;6.13;;;3.75;;
41263;SDS011;26998;48.714;9.414;2023-06-19T10:06:06;2.88;;;2.50;;
41263;SDS011;26998;48.714;9.414;2023-06-19T10:08:43;2.25;;;2.15;;
41263;SDS011;26998;48.714;9.414;2023-06-19T10:11:11;3.20;;;2.90;;
41263;SDS011;26998;48.714;9.414;2023-06-19T10:13:42;2.90;;;2.67;;
41263;SDS011;26998;48.714;9.414;2023-06-19T10:16:22;4.20;;;2.90;;
41263;SDS011;26998;48.714;9.414;2023-06-19T10:18:51;3.60;;;2.88;;
41263;SDS011;26998;48.714;9.414;2023-06-19T10:21:18;3.20;;;2.90;;
41263;SDS011;26998;48.714;9.414;2023-06-19T10:23:55;4.65;;;2.40;;
41263;SDS011;26998;48.714;9.414;2023-06-19T10:26:33;3.75;;;2.90;;
41263;SDS011;26998;48.714;9.414;2023-06-19T10:29:01;2.95;;;2.75;;
41263;SDS011;26998;48.714;9.414;2023-06-19T10:31:39;3.22;;;2.28;;
41263;SDS011;26998;48.714;9.414;2023-06-19T10:34:06;2.55;;;2.35;;
41263;SDS011;26998;48.714;9.414;2023-06-19T10:36:32;3.47;;;3.00;;
41263;SDS011;26998;48.714;9.414;2023-06-19T10:38:59;3.50;;;2.70;;
41263;SDS011;26998;48.714;9.414;2023-06-19T10:41:26;4.57;;;2.90;;
41263;SDS011;26998;48.714;9.414;2023-06-19T10:43:55;2.85;;;2.65;;
41263;SDS011;26998;48.714;9.414;2023-06-19T10:46:23;3.88;;;2.97;;
41263;SDS011;26998;48.714;9.414;2023-06-19T10:48:53;4.35;;;2.55;;
41263;SDS011;26998;48.714;9.414;2023-06-19T10:51:23;2.38;;;2.25;;
41263;SDS011;26998;48.714;9.414;2023-06-19T10:53:50;2.72;;;2.33;;
41263;SDS011;26998;48.714;9.414;2023-06-19T10:56:20;1.95;;;1.85;;
41263;SDS011;26998;48.714;9.414;2023-06-19T10:58:48;2.38;;;1.98;;
41263;SDS011;26998;48.714;9.414;2023-06-19T11:01:22;5.03;;;2.42;;
41263;SDS011;26998;48.714;9.414;2023-06-19T11:03:49;2.60;;;2.40;;
41263;SDS011;26998;48.714;9.414;2023-06-19T11:06:19;2.75;;;2.30;;
41263;SDS011;26998;48.714;9.414;2023-06-19T11:08:52;2.78;;;2.17;;
41263;SDS011;26998;48.714;9.414;2023-06-19T11:11:19;3.17;;;2.10;;
41263;SDS011;26998;48.714;9.414;2023-06-19T11:13:45;2.67;;;2.13;;
41263;SDS011;26998;48.714;9.414;2023-06-19T11:16:14;2.75;;;2.13;;
41263;SDS011;26998;48.714;9.414;2023-06-19T11:18:41;2.65;;;2.08;;
41263;SDS011;26998;48.714;9.414;2023-06-19T11:21:07;2.20;;;1.92;;
41263;SDS011;26998;48.714;9.414;2023-06-19T11:23:34;3.63;;;2.40;;
41263;SDS011;26998;48.714;9.414;2023-06-19T11:26:04;4.22;;;2.90;;
41263;SDS011;26998;48.714;9.414;2023-06-19T11:28:31;2.10;;;2.00;;
41263;SDS011;26998;48.714;9.414;2023-06-19T11:31:02;2.50;;;2.30;;
41263;SDS011;26998;48.714;9.414;2023-06-19T11:33:31;5.32;;;2.35;;
41263;SDS011;26998;48.714;9.414;2023-06-19T11:36:01;4.82;;;2.53;;
41263;SDS011;26998;48.714;9.414;2023-06-19T11:38:28;3.65;;;2.25;;
41263;SDS011;26998;48.714;9.414;2023-06-19T11:40:55;2.60;;;2.35;;
41263;SDS011;26998;48.714;9.414;2023-06-19T11:43:26;2.28;;;2.17;;
41263;SDS011;26998;48.714;9.414;2023-06-19T11:46:03;5.38;;;2.47;;
41263;SDS011;26998;48.714;9.414;2023-06-19T11:48:32;2.38;;;2.17;;
41263;SDS011;26998;48.714;9.414;2023-06-19T11:50:59;2.60;;;2.40;;
41263;SDS011;26998;48.714;9.414;2023-06-19T11:53:26;2.58;;;1.90;;
41263;SDS011;26998;48.714;9.414;2023-06-19T11:55:52;2.10;;;1.90;;
41263;SDS011;26998;48.714;9.414;2023-06-19T11:58:20;2.88;;;2.08;;
41263;SDS011;26998;48.714;9.414;2023-06-19T12:00:48;2.78;;;2.42;;
41263;SDS011;26998;48.714;9.414;2023-06-19T12:03:15;2.40;;;2.20;;
41263;SDS011;26998;48.714;9.414;2023-06-19T12:05:42;4.82;;;2.10;;
41263;SDS011;26998;48.714;9.414;2023-06-19T12:08:09;4.72;;;2.53;;
41263;SDS011;26998;48.714;9.414;2023-06-19T12:10:36;3.00;;;2.63;;
41263;SDS011;26998;48.714;9.414;2023-06-19T12:13:03;5.55;;;2.80;;
41263;SDS011;26998;48.714;9.414;2023-06-19T12:15:29;3.72;;;3.13;;
41263;SDS011;26998;48.714;9.414;2023-06-19T12:17:57;6.03;;;2.72;;
41263;SDS011;26998;48.714;9.414;2023-06-19T12:20:24;6.25;;;3.08;;
41263;SDS011;26998;48.714;9.414;2023-06-19T12:22:52;2.75;;;2.55;;
41263;SDS011;26998;48.714;9.414;2023-06-19T12:25:19;2.33;;;2.13;;
41263;SDS011;26998;48.714;9.414;2023-06-19T12:27:45;3.60;;;2.70;;
41263;SDS011;26998;48.714;9.414;2023-06-19T12:30:12;2.90;;;2.70;;
41263;SDS011;26998;48.714;9.414;2023-06-19T12:32:39;10.23;;;3.45;;
41263;SDS011;26998;48.714;9.414;2023-06-19T12:35:07;2.45;;;2.25;;
41263;SDS011;26998;48.714;9.414;2023-06-19T12:37:37;4.65;;;2.65;;
41263;SDS011;26998;48.714;9.414;2023-06-19T12:40:04;3.03;;;2.80;;
41263;SDS011;26998;48.714;9.414;2023-06-19T12:42:32;3.10;;;2.88;;
41263;SDS011;26998;48.714;9.414;2023-06-19T12:44:58;5.07;;;3.05;;
41263;SDS011;26998;48.714;9.414;2023-06-19T12:47:25;3.13;;;2.80;;
41263;SDS011;26998;48.714;9.414;2023-06-19T12:49:52;3.30;;;3.00;;
41263;SDS011;26998;48.714;9.414;2023-06-19T12:52:19;4.65;;;3.15;;
41263;SDS011;26998;48.714;9.414;2023-06-19T12:54:46;3.22;;;2.70;;
41263;SDS011;26998;48.714;9.414;2023-06-19T12:57:12;3.72;;;3.25;;
41263;SDS011;26998;48.714;9.414;2023-06-19T12:59:39;4.05;;;2.83;;
41263;SDS011;26998;48.714;9.414;2023-06-19T13:02:06;3.83;;;2.75;;
41263;SDS011;26998;48.714;9.414;2023-06-19T13:04:33;4.70;;;2.90;;
41263;SDS011;26998;48.714;9.414;2023-06-19T13:06:59;3.60;;;3.30;;
41263;SDS011;26998;48.714;9.414;2023-06-19T13:09:26;3.00;;;2.80;;
41263;SDS011;26998;48.714;9.414;2023-06-19T13:11:52;3.25;;;2.70;;
41263;SDS011;26998;48.714;9.414;2023-06-19T13:14:19;3.08;;;2.88;;
41263;SDS011;26998;48.714;9.414;2023-06-19T13:16:45;3.30;;;2.75;;
41263;SDS011;26998;48.714;9.414;2023-06-19T13:19:13;3.05;;;2.85;;
41263;SDS011;26998;48.714;9.414;2023-06-19T13:21:41;3.22;;;2.92;;
41263;SDS011;26998;48.714;9.414;2023-06-19T13:24:08;3.95;;;3.15;;
41263;SDS011;26998;48.714;9.414;2023-06-19T13:26:34;3.35;;;3.08;;
41263;SDS011;26998;48.714;9.414;2023-06-19T13:29:03;3.22;;;2.92;;
41263;SDS011;26998;48.714;9.414;2023-06-19T13:31:30;8.00;;;3.05;;
41263;SDS011;26998;48.714;9.414;2023-06-19T13:33:58;5.95;;;2.70;;
41263;SDS011;26998;48.714;9.414;2023-06-19T13:36:25;7.43;;;2.67;;
41263;SDS011;26998;48.714;9.414;2023-06-19T13:38:52;3.25;;;2.95;;
41263;SDS011;26998;48.714;9.414;2023-06-19T13:41:19;2.60;;;2.40;;
41263;SDS011;26998;48.714;9.414;2023-06-19T13:43:46;5.55;;;3.28;;
41263;SDS011;26998;48.714;9.414;2023-06-19T13:46:12;3.97;;;2.97;;
41263;SDS011;26998;48.714;9.414;2023-06-19T13:48:39;3.83;;;2.80;;
41263;SDS011;26998;48.714;9.414;2023-06-19T13:51:06;3.33;;;2.70;;
41263;SDS011;26998;48.714;9.414;2023-06-19T13:53:32;7.47;;;2.85;;
41263;SDS011;26998;48.714;9.414;2023-06-19T13:55:59;2.97;;;2.78;;
41263;SDS011;26998;48.714;9.414;2023-06-19T13:58:26;3.30;;;2.60;;
41263;SDS011;26998;48.714;9.414;2023-06-19T14:00:53;2.90;;;2.60;;
41263;SDS011;26998;48.714;9.414;2023-06-19T14:03:20;3.60;;;2.58;;
41263;SDS011;26998;48.714;9.414;2023-06-19T14:05:47;3.10;;;2.65;;
41263;SDS011;26998;48.714;9.414;2023-06-19T14:08:16;4.47;;;3.13;;
41263;SDS011;26998;48.714;9.414;2023-06-19T14:10:42;4.60;;;2.30;;
41263;SDS011;26998;48.714;9.414;2023-06-19T14:13:09;3.83;;;3.53;;
41263;SDS011;26998;48.714;9.414;2023-06-19T14:15:39;3.17;;;2.63;;
41263;SDS011;26998;48.714;9.414;2023-06-19T14:18:06;3.30;;;3.00;;
41263;SDS011;26998;48.714;9.414;2023-06-19T14:20:33;4.15;;;2.45;;
41263;SDS011;26998;48.714;9.414;2023-06-19T14:23:00;3.30;;;2.75;;
41263;SDS011;26998;48.714;9.414;2023-06-19T14:25:26;4.03;;;2.80;;
41263;SDS011;26998;48.714;9.414;2023-06-19T14:27:53;3.08;;;2.45;;
41263;SDS011;26998;48.714;9.414;2023-06-19T14:30:20;3.25;;;2.53;;
41263;SDS011;26998;48.714;9.414;2023-06-19T14:32:47;2.88;;;2.67;;
41263;SDS011;26998;48.714;9.414;2023-06-19T14:35:14;3.25;;;2.95;;
41263;SDS011;26998;48.714;9.414;2023-06-19T14:37:40;3.85;;;3.55;;
41263;SDS011;26998;48.714;9.414;2023-06-19T14:40:08;2.88;;;2.67;;
41263;SDS011;26998;48.714;9.414;2023-06-19T14:42:35;3.67;;;2.88;;
41263;SDS011;26998;48.714;9.414;2023-06-19T14:45:02;4.80;;;3.33;;
41263;SDS011;26998;48.714;9.414;2023-06-19T14:47:29;3.53;;;2.63;;
41263;SDS011;26998;48.714;9.414;2023-06-19T14:49:55;3.45;;;3.15;;